sensor_id;sensor_type;location;lat;lon;timestamp;temperature;humidity
36990;DHT22;22898;52.102;5.776;2023-01-25T00:02:19;9.20;92.40
36990;DHT22;22898;52.102;5.776;2023-01-25T00:04:44;9.40;91.70
36990;DHT22;22898;52.102;5.776;2023-01-25T00:07:10;9.50;91.70
36990;DHT22;22898;52.102;5.776;2023-01-25T00:09:35;9.60;91.60
36990;DHT22;22898;52.102;5.776;2023-01-25T00:12:01;9.60;91.40
36990;DHT22;22898;52.102;5.776;2023-01-25T00:14:26;9.60;91.60
36990;DHT22;22898;52.102;5.776;2023-01-25T00:16:52;9.70;91.40
36990;DHT22;22898;52.102;5.776;2023-01-25T00:19:18;9.80;91.20
36990;DHT22;22898;52.102;5.776;2023-01-25T00:21:43;10.00;90.80
36990;DHT22;22898;52.102;5.776;2023-01-25T00:24:09;9.90;91.40
36990;DHT22;22898;52.102;5.776;2023-01-25T00:26:37;9.90;90.90
36990;DHT22;22898;52.102;5.776;2023-01-25T00:29:04;9.90;91.00
36990;DHT22;22898;52.102;5.776;2023-01-25T00:34:29;9.90;91.20
36990;DHT22;22898;52.102;5.776;2023-01-25T00:37:02;10.00;90.90
36990;DHT22;22898;52.102;5.776;2023-01-25T00:39:35;10.00;91.00
36990;DHT22;22898;52.102;5.776;2023-01-25T00:42:01;10.20;90.70
36990;DHT22;22898;52.102;5.776;2023-01-25T00:44:26;10.10;90.50
36990;DHT22;22898;52.102;5.776;2023-01-25T00:46:52;10.00;90.80
36990;DHT22;22898;52.102;5.776;2023-01-25T00:49:23;10.00;91.00
36990;DHT22;22898;52.102;5.776;2023-01-25T00:51:50;9.90;91.00
36990;DHT22;22898;52.102;5.776;2023-01-25T00:54:16;9.90;90.80
36990;DHT22;22898;52.102;5.776;2023-01-25T00:56:42;10.00;90.70
36990;DHT22;22898;52.102;5.776;2023-01-25T00:59:09;9.90;90.90
36990;DHT22;22898;52.102;5.776;2023-01-25T01:01:34;9.90;90.60
36990;DHT22;22898;52.102;5.776;2023-01-25T01:04:00;9.80;91.10
36990;DHT22;22898;52.102;5.776;2023-01-25T01:06:25;9.80;91.00
36990;DHT22;22898;52.102;5.776;2023-01-25T01:08:51;9.90;90.70
36990;DHT22;22898;52.102;5.776;2023-01-25T01:11:17;9.70;91.10
36990;DHT22;22898;52.102;5.776;2023-01-25T01:13:42;9.50;90.20
36990;DHT22;22898;52.102;5.776;2023-01-25T01:16:10;9.40;90.50
36990;DHT22;22898;52.102;5.776;2023-01-25T01:18:41;8.80;90.80
36990;DHT22;22898;52.102;5.776;2023-01-25T01:21:08;8.60;91.70
36990;DHT22;22898;52.102;5.776;2023-01-25T01:23:35;8.80;91.60
36990;DHT22;22898;52.102;5.776;2023-01-25T01:26:05;8.80;91.70
36990;DHT22;22898;52.102;5.776;2023-01-25T01:28:32;8.60;92.10
36990;DHT22;22898;52.102;5.776;2023-01-25T01:31:03;8.60;91.90
36990;DHT22;22898;52.102;5.776;2023-01-25T01:33:29;8.50;92.50
36990;DHT22;22898;52.102;5.776;2023-01-25T01:35:55;8.70;92.40
36990;DHT22;22898;52.102;5.776;2023-01-25T01:38:21;9.00;91.50
36990;DHT22;22898;52.102;5.776;2023-01-25T01:40:47;8.90;91.00
36990;DHT22;22898;52.102;5.776;2023-01-25T01:43:22;8.50;92.10
36990;DHT22;22898;52.102;5.776;2023-01-25T01:48:47;8.80;92.10
36990;DHT22;22898;52.102;5.776;2023-01-25T01:53:57;9.10;91.80
36990;DHT22;22898;52.102;5.776;2023-01-25T01:57:28;9.30;91.70
36990;DHT22;22898;52.102;5.776;2023-01-25T01:59:26;9.30;91.50
36990;DHT22;22898;52.102;5.776;2023-01-25T02:01:53;9.40;91.00
36990;DHT22;22898;52.102;5.776;2023-01-25T02:04:20;9.00;91.90
36990;DHT22;22898;52.102;5.776;2023-01-25T02:06:54;8.90;91.90
36990;DHT22;22898;52.102;5.776;2023-01-25T02:09:25;9.00;92.10
36990;DHT22;22898;52.102;5.776;2023-01-25T02:11:52;9.30;91.70
36990;DHT22;22898;52.102;5.776;2023-01-25T02:14:19;9.40;91.30
36990;DHT22;22898;52.102;5.776;2023-01-25T02:16:45;9.50;91.20
36990;DHT22;22898;52.102;5.776;2023-01-25T02:19:20;9.50;90.80
36990;DHT22;22898;52.102;5.776;2023-01-25T02:21:50;9.30;91.10
36990;DHT22;22898;52.102;5.776;2023-01-25T02:24:23;9.20;91.20
36990;DHT22;22898;52.102;5.776;2023-01-25T02:26:52;9.00;91.60
36990;DHT22;22898;52.102;5.776;2023-01-25T02:29:18;9.00;91.50
36990;DHT22;22898;52.102;5.776;2023-01-25T02:31:47;9.20;91.10
36990;DHT22;22898;52.102;5.776;2023-01-25T02:34:17;9.10;90.90
36990;DHT22;22898;52.102;5.776;2023-01-25T02:36:42;8.90;91.10
36990;DHT22;22898;52.102;5.776;2023-01-25T02:39:12;8.80;91.50
36990;DHT22;22898;52.102;5.776;2023-01-25T02:41:42;8.80;91.50
36990;DHT22;22898;52.102;5.776;2023-01-25T02:44:18;9.00;91.10
36990;DHT22;22898;52.102;5.776;2023-01-25T02:46:44;9.10;91.00
36990;DHT22;22898;52.102;5.776;2023-01-25T02:49:11;9.20;90.60
36990;DHT22;22898;52.102;5.776;2023-01-25T02:51:39;9.00;90.70
36990;DHT22;22898;52.102;5.776;2023-01-25T02:54:06;8.60;91.30
36990;DHT22;22898;52.102;5.776;2023-01-25T02:56:32;8.20;92.00
36990;DHT22;22898;52.102;5.776;2023-01-25T02:58:58;8.20;91.80
36990;DHT22;22898;52.102;5.776;2023-01-25T03:01:24;8.20;91.80
36990;DHT22;22898;52.102;5.776;2023-01-25T03:03:49;8.20;92.40
36990;DHT22;22898;52.102;5.776;2023-01-25T03:06:15;8.20;92.70
36990;DHT22;22898;52.102;5.776;2023-01-25T03:08:41;8.20;92.50
36990;DHT22;22898;52.102;5.776;2023-01-25T03:11:07;8.00;92.90
36990;DHT22;22898;52.102;5.776;2023-01-25T03:13:34;8.00;92.70
36990;DHT22;22898;52.102;5.776;2023-01-25T03:16:02;8.00;93.10
36990;DHT22;22898;52.102;5.776;2023-01-25T03:18:28;8.40;92.50
36990;DHT22;22898;52.102;5.776;2023-01-25T03:20:54;8.70;92.10
36990;DHT22;22898;52.102;5.776;2023-01-25T03:23:23;8.90;91.70
36990;DHT22;22898;52.102;5.776;2023-01-25T03:25:48;9.20;91.40
36990;DHT22;22898;52.102;5.776;2023-01-25T03:28:14;9.20;91.20
36990;DHT22;22898;52.102;5.776;2023-01-25T03:30:40;9.40;91.10
36990;DHT22;22898;52.102;5.776;2023-01-25T03:33:06;9.50;90.60
36990;DHT22;22898;52.102;5.776;2023-01-25T03:35:32;9.60;90.60
36990;DHT22;22898;52.102;5.776;2023-01-25T03:37:58;9.70;90.30
36990;DHT22;22898;52.102;5.776;2023-01-25T03:40:23;9.70;90.40
36990;DHT22;22898;52.102;5.776;2023-01-25T03:42:49;9.50;90.20
36990;DHT22;22898;52.102;5.776;2023-01-25T03:45:15;9.20;91.00
36990;DHT22;22898;52.102;5.776;2023-01-25T03:47:41;9.30;90.90
36990;DHT22;22898;52.102;5.776;2023-01-25T03:50:07;9.30;90.80
36990;DHT22;22898;52.102;5.776;2023-01-25T03:52:33;9.30;90.60
36990;DHT22;22898;52.102;5.776;2023-01-25T03:55:03;9.30;90.60
36990;DHT22;22898;52.102;5.776;2023-01-25T03:57:29;9.20;90.60
36990;DHT22;22898;52.102;5.776;2023-01-25T03:59:55;9.10;90.80
36990;DHT22;22898;52.102;5.776;2023-01-25T04:02:20;9.20;90.80
36990;DHT22;22898;52.102;5.776;2023-01-25T04:04:46;9.30;90.50
36990;DHT22;22898;52.102;5.776;2023-01-25T04:07:11;9.40;90.50
36990;DHT22;22898;52.102;5.776;2023-01-25T04:09:37;9.30;90.30
36990;DHT22;22898;52.102;5.776;2023-01-25T04:12:03;9.30;90.50
36990;DHT22;22898;52.102;5.776;2023-01-25T04:14:28;9.50;90.20
36990;DHT22;22898;52.102;5.776;2023-01-25T04:16:54;9.50;90.10
36990;DHT22;22898;52.102;5.776;2023-01-25T04:19:19;9.40;90.10
36990;DHT22;22898;52.102;5.776;2023-01-25T04:21:45;9.40;90.20
36990;DHT22;22898;52.102;5.776;2023-01-25T04:24:10;9.40;90.00
36990;DHT22;22898;52.102;5.776;2023-01-25T04:26:36;9.20;90.10
36990;DHT22;22898;52.102;5.776;2023-01-25T04:29:02;9.10;90.40
36990;DHT22;22898;52.102;5.776;2023-01-25T04:31:27;9.00;90.70
36990;DHT22;22898;52.102;5.776;2023-01-25T04:33:54;9.00;90.70
36990;DHT22;22898;52.102;5.776;2023-01-25T04:36:20;9.10;90.30
36990;DHT22;22898;52.102;5.776;2023-01-25T04:38:45;8.40;91.10
36990;DHT22;22898;52.102;5.776;2023-01-25T04:41:11;8.10;91.90
36990;DHT22;22898;52.102;5.776;2023-01-25T04:43:37;8.50;91.70
36990;DHT22;22898;52.102;5.776;2023-01-25T04:46:02;8.80;91.20
36990;DHT22;22898;52.102;5.776;2023-01-25T04:48:28;9.10;90.90
36990;DHT22;22898;52.102;5.776;2023-01-25T04:50:54;9.30;90.50
36990;DHT22;22898;52.102;5.776;2023-01-25T04:53:20;9.30;90.40
36990;DHT22;22898;52.102;5.776;2023-01-25T04:55:46;7.90;91.70
36990;DHT22;22898;52.102;5.776;2023-01-25T04:58:12;6.70;94.40
36990;DHT22;22898;52.102;5.776;2023-01-25T05:00:38;7.10;93.80
36990;DHT22;22898;52.102;5.776;2023-01-25T05:03:04;7.50;93.00
36990;DHT22;22898;52.102;5.776;2023-01-25T05:05:29;7.70;93.00
36990;DHT22;22898;52.102;5.776;2023-01-25T05:07:55;8.10;92.40
36990;DHT22;22898;52.102;5.776;2023-01-25T05:10:21;8.20;92.00
36990;DHT22;22898;52.102;5.776;2023-01-25T05:12:46;8.30;92.10
36990;DHT22;22898;52.102;5.776;2023-01-25T05:15:12;8.30;91.90
36990;DHT22;22898;52.102;5.776;2023-01-25T05:17:37;7.90;92.50
36990;DHT22;22898;52.102;5.776;2023-01-25T05:20:03;8.10;92.60
36990;DHT22;22898;52.102;5.776;2023-01-25T05:22:29;7.90;92.50
36990;DHT22;22898;52.102;5.776;2023-01-25T05:24:55;7.50;93.10
36990;DHT22;22898;52.102;5.776;2023-01-25T05:27:21;7.40;93.60
36990;DHT22;22898;52.102;5.776;2023-01-25T05:29:47;7.60;93.20
36990;DHT22;22898;52.102;5.776;2023-01-25T05:32:18;7.50;93.30
36990;DHT22;22898;52.102;5.776;2023-01-25T05:34:44;7.80;93.20
36990;DHT22;22898;52.102;5.776;2023-01-25T05:37:12;7.50;93.00
36990;DHT22;22898;52.102;5.776;2023-01-25T05:39:37;6.90;94.30
36990;DHT22;22898;52.102;5.776;2023-01-25T05:42:07;7.30;93.90
36990;DHT22;22898;52.102;5.776;2023-01-25T05:44:33;7.70;93.30
36990;DHT22;22898;52.102;5.776;2023-01-25T05:46:58;7.90;93.00
36990;DHT22;22898;52.102;5.776;2023-01-25T05:49:25;7.60;93.10
36990;DHT22;22898;52.102;5.776;2023-01-25T05:51:51;7.80;93.00
36990;DHT22;22898;52.102;5.776;2023-01-25T05:54:17;8.20;92.50
36990;DHT22;22898;52.102;5.776;2023-01-25T05:56:43;8.30;92.20
36990;DHT22;22898;52.102;5.776;2023-01-25T05:59:10;8.00;92.70
36990;DHT22;22898;52.102;5.776;2023-01-25T06:01:36;8.20;92.50
36990;DHT22;22898;52.102;5.776;2023-01-25T06:04:02;7.90;92.70
36990;DHT22;22898;52.102;5.776;2023-01-25T06:06:28;7.40;93.40
36990;DHT22;22898;52.102;5.776;2023-01-25T06:08:53;7.40;93.60
36990;DHT22;22898;52.102;5.776;2023-01-25T06:11:21;7.80;93.10
36990;DHT22;22898;52.102;5.776;2023-01-25T06:13:47;7.60;93.10
36990;DHT22;22898;52.102;5.776;2023-01-25T06:16:14;7.90;93.10
36990;DHT22;22898;52.102;5.776;2023-01-25T06:18:41;8.10;92.30
36990;DHT22;22898;52.102;5.776;2023-01-25T06:21:06;8.30;91.80
36990;DHT22;22898;52.102;5.776;2023-01-25T06:23:32;8.30;91.80
36990;DHT22;22898;52.102;5.776;2023-01-25T06:26:04;8.40;91.80
36990;DHT22;22898;52.102;5.776;2023-01-25T06:28:34;8.50;91.70
36990;DHT22;22898;52.102;5.776;2023-01-25T06:33:36;8.40;91.60
36990;DHT22;22898;52.102;5.776;2023-01-25T06:36:06;8.60;91.40
36990;DHT22;22898;52.102;5.776;2023-01-25T06:38:33;8.70;91.00
36990;DHT22;22898;52.102;5.776;2023-01-25T06:41:04;8.70;91.00
36990;DHT22;22898;52.102;5.776;2023-01-25T06:43:31;8.50;91.10
36990;DHT22;22898;52.102;5.776;2023-01-25T06:46:01;8.40;91.50
36990;DHT22;22898;52.102;5.776;2023-01-25T06:48:28;8.30;91.70
36990;DHT22;22898;52.102;5.776;2023-01-25T06:50:59;8.20;91.90
36990;DHT22;22898;52.102;5.776;2023-01-25T06:53:26;8.00;92.10
36990;DHT22;22898;52.102;5.776;2023-01-25T06:56:06;7.80;92.60
36990;DHT22;22898;52.102;5.776;2023-01-25T06:58:32;8.10;92.50
36990;DHT22;22898;52.102;5.776;2023-01-25T07:01:00;8.40;91.90
36990;DHT22;22898;52.102;5.776;2023-01-25T07:03:27;8.60;91.40
36990;DHT22;22898;52.102;5.776;2023-01-25T07:06:00;8.50;91.40
36990;DHT22;22898;52.102;5.776;2023-01-25T07:08:26;8.50;91.60
36990;DHT22;22898;52.102;5.776;2023-01-25T07:10:54;8.60;91.30
36990;DHT22;22898;52.102;5.776;2023-01-25T07:13:20;8.20;91.90
36990;DHT22;22898;52.102;5.776;2023-01-25T07:15:51;7.90;92.20
36990;DHT22;22898;52.102;5.776;2023-01-25T07:18:17;7.50;93.20
36990;DHT22;22898;52.102;5.776;2023-01-25T07:20:42;7.80;92.80
36990;DHT22;22898;52.102;5.776;2023-01-25T07:23:08;7.90;92.70
36990;DHT22;22898;52.102;5.776;2023-01-25T07:25:33;8.10;92.00
36990;DHT22;22898;52.102;5.776;2023-01-25T07:27:59;8.30;92.10
36990;DHT22;22898;52.102;5.776;2023-01-25T07:30:25;8.50;91.60
36990;DHT22;22898;52.102;5.776;2023-01-25T07:32:50;8.50;91.50
36990;DHT22;22898;52.102;5.776;2023-01-25T07:35:16;8.40;91.40
36990;DHT22;22898;52.102;5.776;2023-01-25T07:37:41;8.40;91.40
36990;DHT22;22898;52.102;5.776;2023-01-25T07:40:07;8.40;91.50
36990;DHT22;22898;52.102;5.776;2023-01-25T07:42:33;8.30;91.50
36990;DHT22;22898;52.102;5.776;2023-01-25T07:44:58;8.20;91.80
36990;DHT22;22898;52.102;5.776;2023-01-25T07:47:24;8.10;91.80
36990;DHT22;22898;52.102;5.776;2023-01-25T07:49:49;7.00;93.90
36990;DHT22;22898;52.102;5.776;2023-01-25T07:52:15;7.00;94.10
36990;DHT22;22898;52.102;5.776;2023-01-25T07:54:41;7.30;93.50
36990;DHT22;22898;52.102;5.776;2023-01-25T07:57:07;7.60;93.40
36990;DHT22;22898;52.102;5.776;2023-01-25T07:59:32;8.00;92.80
36990;DHT22;22898;52.102;5.776;2023-01-25T08:01:58;8.30;92.30
36990;DHT22;22898;52.102;5.776;2023-01-25T08:04:24;8.50;91.80
36990;DHT22;22898;52.102;5.776;2023-01-25T08:06:49;8.40;91.80
36990;DHT22;22898;52.102;5.776;2023-01-25T08:09:17;8.20;91.90
36990;DHT22;22898;52.102;5.776;2023-01-25T08:11:45;7.60;92.70
36990;DHT22;22898;52.102;5.776;2023-01-25T08:14:11;7.30;93.60
36990;DHT22;22898;52.102;5.776;2023-01-25T08:16:37;7.30;93.50
36990;DHT22;22898;52.102;5.776;2023-01-25T08:19:03;6.90;94.30
36990;DHT22;22898;52.102;5.776;2023-01-25T08:21:31;7.10;93.80
36990;DHT22;22898;52.102;5.776;2023-01-25T08:23:59;7.40;93.60
36990;DHT22;22898;52.102;5.776;2023-01-25T08:26:25;7.20;93.20
36990;DHT22;22898;52.102;5.776;2023-01-25T08:28:51;6.40;95.20
36990;DHT22;22898;52.102;5.776;2023-01-25T08:31:20;6.90;94.50
36990;DHT22;22898;52.102;5.776;2023-01-25T08:33:46;7.40;93.50
36990;DHT22;22898;52.102;5.776;2023-01-25T08:36:13;7.50;93.60
36990;DHT22;22898;52.102;5.776;2023-01-25T08:38:43;7.40;93.60
36990;DHT22;22898;52.102;5.776;2023-01-25T08:41:16;7.80;93.20
36990;DHT22;22898;52.102;5.776;2023-01-25T08:43:43;8.10;92.60
36990;DHT22;22898;52.102;5.776;2023-01-25T08:46:09;8.30;92.20
36990;DHT22;22898;52.102;5.776;2023-01-25T08:48:35;8.30;92.10
36990;DHT22;22898;52.102;5.776;2023-01-25T08:51:01;8.10;92.70
36990;DHT22;22898;52.102;5.776;2023-01-25T08:53:28;7.20;93.30
36990;DHT22;22898;52.102;5.776;2023-01-25T08:55:53;7.00;94.10
36990;DHT22;22898;52.102;5.776;2023-01-25T08:58:19;7.40;93.40
36990;DHT22;22898;52.102;5.776;2023-01-25T09:00:47;7.60;93.10
36990;DHT22;22898;52.102;5.776;2023-01-25T09:03:13;8.00;92.30
36990;DHT22;22898;52.102;5.776;2023-01-25T09:05:40;8.10;92.30
36990;DHT22;22898;52.102;5.776;2023-01-25T09:08:07;8.10;92.40
36990;DHT22;22898;52.102;5.776;2023-01-25T09:10:33;8.20;92.50
36990;DHT22;22898;52.102;5.776;2023-01-25T09:12:58;8.30;92.30
36990;DHT22;22898;52.102;5.776;2023-01-25T09:15:24;8.40;91.90
36990;DHT22;22898;52.102;5.776;2023-01-25T09:17:51;7.60;93.00
36990;DHT22;22898;52.102;5.776;2023-01-25T09:20:17;7.20;93.50
36990;DHT22;22898;52.102;5.776;2023-01-25T09:22:42;7.10;93.70
36990;DHT22;22898;52.102;5.776;2023-01-25T09:25:08;6.90;94.10
36990;DHT22;22898;52.102;5.776;2023-01-25T09:27:34;7.20;93.70
36990;DHT22;22898;52.102;5.776;2023-01-25T09:29:59;7.10;93.90
36990;DHT22;22898;52.102;5.776;2023-01-25T09:32:25;6.80;94.60
36990;DHT22;22898;52.102;5.776;2023-01-25T09:34:50;7.00;93.90
36990;DHT22;22898;52.102;5.776;2023-01-25T09:37:16;6.90;94.10
36990;DHT22;22898;52.102;5.776;2023-01-25T09:39:41;6.60;94.70
36990;DHT22;22898;52.102;5.776;2023-01-25T09:42:38;6.30;95.20
36990;DHT22;22898;52.102;5.776;2023-01-25T09:45:21;6.10;95.80
36990;DHT22;22898;52.102;5.776;2023-01-25T09:55:55;7.60;93.60
36990;DHT22;22898;52.102;5.776;2023-01-25T09:58:31;7.80;93.10
36990;DHT22;22898;52.102;5.776;2023-01-25T10:04:05;7.70;93.20
36990;DHT22;22898;52.102;5.776;2023-01-25T10:06:40;7.40;94.00
36990;DHT22;22898;52.102;5.776;2023-01-25T10:09:15;7.60;93.60
36990;DHT22;22898;52.102;5.776;2023-01-25T10:11:44;7.70;93.40
36990;DHT22;22898;52.102;5.776;2023-01-25T10:14:16;8.00;93.40
36990;DHT22;22898;52.102;5.776;2023-01-25T10:16:49;8.40;92.70
36990;DHT22;22898;52.102;5.776;2023-01-25T10:22:02;8.10;92.70
36990;DHT22;22898;52.102;5.776;2023-01-25T10:30:19;7.60;93.90
36990;DHT22;22898;52.102;5.776;2023-01-25T10:32:45;8.10;93.30
36990;DHT22;22898;52.102;5.776;2023-01-25T10:35:18;8.20;93.30
36990;DHT22;22898;52.102;5.776;2023-01-25T10:37:46;8.50;92.50
36990;DHT22;22898;52.102;5.776;2023-01-25T10:40:13;8.70;92.30
36990;DHT22;22898;52.102;5.776;2023-01-25T10:43:01;8.70;91.80
36990;DHT22;22898;52.102;5.776;2023-01-25T10:45:27;8.40;92.50
36990;DHT22;22898;52.102;5.776;2023-01-25T10:48:00;8.30;92.50
36990;DHT22;22898;52.102;5.776;2023-01-25T10:53:36;8.60;91.90
36990;DHT22;22898;52.102;5.776;2023-01-25T10:58:40;8.70;91.80
36990;DHT22;22898;52.102;5.776;2023-01-25T11:01:09;8.40;91.70
36990;DHT22;22898;52.102;5.776;2023-01-25T11:03:43;7.50;93.20
36990;DHT22;22898;52.102;5.776;2023-01-25T11:06:09;6.50;95.70
36990;DHT22;22898;52.102;5.776;2023-01-25T11:08:39;5.70;97.40
36990;DHT22;22898;52.102;5.776;2023-01-25T11:13:56;5.20;99.20
36990;DHT22;22898;52.102;5.776;2023-01-25T11:16:32;4.90;99.10
36990;DHT22;22898;52.102;5.776;2023-01-25T11:18:58;4.60;99.90
36990;DHT22;22898;52.102;5.776;2023-01-25T11:21:33;4.40;99.90
36990;DHT22;22898;52.102;5.776;2023-01-25T11:26:34;4.90;99.90
36990;DHT22;22898;52.102;5.776;2023-01-25T11:29:21;5.20;99.50
36990;DHT22;22898;52.102;5.776;2023-01-25T11:31:54;5.20;99.70
36990;DHT22;22898;52.102;5.776;2023-01-25T11:34:25;5.90;98.80
36990;DHT22;22898;52.102;5.776;2023-01-25T11:37:15;6.40;97.60
36990;DHT22;22898;52.102;5.776;2023-01-25T11:43:05;6.80;97.20
36990;DHT22;22898;52.102;5.776;2023-01-25T11:51:49;7.30;96.30
36990;DHT22;22898;52.102;5.776;2023-01-25T12:15:50;8.20;94.20
36990;DHT22;22898;52.102;5.776;2023-01-25T12:26:33;8.70;93.80
36990;DHT22;22898;52.102;5.776;2023-01-25T12:29:04;8.90;93.40
36990;DHT22;22898;52.102;5.776;2023-01-25T12:31:44;9.00;92.80
36990;DHT22;22898;52.102;5.776;2023-01-25T12:34:26;8.90;93.20
36990;DHT22;22898;52.102;5.776;2023-01-25T12:36:52;8.90;93.00
36990;DHT22;22898;52.102;5.776;2023-01-25T12:39:22;8.70;92.90
36990;DHT22;22898;52.102;5.776;2023-01-25T12:41:54;8.50;93.30
36990;DHT22;22898;52.102;5.776;2023-01-25T12:47:01;8.50;93.70
36990;DHT22;22898;52.102;5.776;2023-01-25T12:49:37;8.60;93.30
36990;DHT22;22898;52.102;5.776;2023-01-25T12:52:16;8.40;93.50
36990;DHT22;22898;52.102;5.776;2023-01-25T12:54:44;8.60;93.10
36990;DHT22;22898;52.102;5.776;2023-01-25T12:57:18;8.60;93.20
36990;DHT22;22898;52.102;5.776;2023-01-25T12:59:53;8.60;93.10
36990;DHT22;22898;52.102;5.776;2023-01-25T13:03:00;8.60;93.00
36990;DHT22;22898;52.102;5.776;2023-01-25T13:05:35;7.90;94.00
36990;DHT22;22898;52.102;5.776;2023-01-25T13:11:17;7.90;94.10
36990;DHT22;22898;52.102;5.776;2023-01-25T13:13:45;7.90;94.10
36990;DHT22;22898;52.102;5.776;2023-01-25T13:16:32;7.90;93.80
36990;DHT22;22898;52.102;5.776;2023-01-25T13:18:59;7.80;94.50
36990;DHT22;22898;52.102;5.776;2023-01-25T13:21:39;8.30;93.90
36990;DHT22;22898;52.102;5.776;2023-01-25T13:24:28;8.60;93.10
36990;DHT22;22898;52.102;5.776;2023-01-25T13:44:51;7.00;95.30
36990;DHT22;22898;52.102;5.776;2023-01-25T13:47:38;7.20;95.50
36990;DHT22;22898;52.102;5.776;2023-01-25T13:50:25;7.70;94.70
36990;DHT22;22898;52.102;5.776;2023-01-25T13:55:24;6.70;95.70
36990;DHT22;22898;52.102;5.776;2023-01-25T13:57:50;5.70;97.10
36990;DHT22;22898;52.102;5.776;2023-01-25T14:00:16;5.10;98.50
36990;DHT22;22898;52.102;5.776;2023-01-25T14:02:44;5.00;99.30
36990;DHT22;22898;52.102;5.776;2023-01-25T14:05:18;5.30;98.80
36990;DHT22;22898;52.102;5.776;2023-01-25T14:07:46;5.70;97.90
36990;DHT22;22898;52.102;5.776;2023-01-25T14:10:21;6.30;97.10
36990;DHT22;22898;52.102;5.776;2023-01-25T14:12:49;6.30;97.10
36990;DHT22;22898;52.102;5.776;2023-01-25T14:20:34;5.70;97.80
36990;DHT22;22898;52.102;5.776;2023-01-25T14:22:59;5.40;98.10
36990;DHT22;22898;52.102;5.776;2023-01-25T14:25:25;4.50;99.60
36990;DHT22;22898;52.102;5.776;2023-01-25T14:27:56;4.20;99.90
36990;DHT22;22898;52.102;5.776;2023-01-25T14:30:24;5.10;99.70
36990;DHT22;22898;52.102;5.776;2023-01-25T14:32:55;5.20;99.20
36990;DHT22;22898;52.102;5.776;2023-01-25T14:35:35;5.60;99.10
36990;DHT22;22898;52.102;5.776;2023-01-25T14:38:07;6.30;97.40
36990;DHT22;22898;52.102;5.776;2023-01-25T14:40:42;6.40;97.30
36990;DHT22;22898;52.102;5.776;2023-01-25T14:43:08;6.60;96.70
36990;DHT22;22898;52.102;5.776;2023-01-25T14:45:34;6.60;96.50
36990;DHT22;22898;52.102;5.776;2023-01-25T14:47:59;6.10;96.90
36990;DHT22;22898;52.102;5.776;2023-01-25T14:50:36;5.60;98.40
36990;DHT22;22898;52.102;5.776;2023-01-25T14:53:22;5.30;99.10
36990;DHT22;22898;52.102;5.776;2023-01-25T14:55:49;5.80;98.60
36990;DHT22;22898;52.102;5.776;2023-01-25T14:58:19;6.20;97.80
36990;DHT22;22898;52.102;5.776;2023-01-25T15:00:57;6.00;97.70
36990;DHT22;22898;52.102;5.776;2023-01-25T15:03:24;6.30;97.40
36990;DHT22;22898;52.102;5.776;2023-01-25T15:05:52;6.40;97.20
36990;DHT22;22898;52.102;5.776;2023-01-25T15:08:37;6.50;97.20
36990;DHT22;22898;52.102;5.776;2023-01-25T15:11:03;6.60;97.00
36990;DHT22;22898;52.102;5.776;2023-01-25T15:13:47;6.80;96.30
36990;DHT22;22898;52.102;5.776;2023-01-25T15:16:13;6.70;96.60
36990;DHT22;22898;52.102;5.776;2023-01-25T15:18:50;7.00;96.20
36990;DHT22;22898;52.102;5.776;2023-01-25T15:21:36;7.30;95.40
36990;DHT22;22898;52.102;5.776;2023-01-25T15:24:06;6.80;96.00
36990;DHT22;22898;52.102;5.776;2023-01-25T15:26:35;6.20;97.10
36990;DHT22;22898;52.102;5.776;2023-01-25T15:29:14;5.60;98.00
36990;DHT22;22898;52.102;5.776;2023-01-25T15:31:41;5.10;99.10
36990;DHT22;22898;52.102;5.776;2023-01-25T15:34:31;5.30;99.00
36990;DHT22;22898;52.102;5.776;2023-01-25T15:36:57;5.40;99.20
36990;DHT22;22898;52.102;5.776;2023-01-25T15:39:22;5.70;98.30
36990;DHT22;22898;52.102;5.776;2023-01-25T15:41:48;5.70;98.10
36990;DHT22;22898;52.102;5.776;2023-01-25T15:44:14;5.70;98.30
36990;DHT22;22898;52.102;5.776;2023-01-25T15:46:44;5.10;98.80
36990;DHT22;22898;52.102;5.776;2023-01-25T15:49:17;4.70;99.90
36990;DHT22;22898;52.102;5.776;2023-01-25T15:51:44;4.80;99.90
36990;DHT22;22898;52.102;5.776;2023-01-25T15:54:09;5.40;99.30
36990;DHT22;22898;52.102;5.776;2023-01-25T15:56:36;5.30;98.70
36990;DHT22;22898;52.102;5.776;2023-01-25T15:59:11;5.20;99.50
36990;DHT22;22898;52.102;5.776;2023-01-25T16:01:37;4.90;99.80
36990;DHT22;22898;52.102;5.776;2023-01-25T16:04:03;5.30;99.50
36990;DHT22;22898;52.102;5.776;2023-01-25T16:06:42;6.00;98.50
36990;DHT22;22898;52.102;5.776;2023-01-25T16:09:17;6.50;97.30
36990;DHT22;22898;52.102;5.776;2023-01-25T16:11:45;6.90;96.60
36990;DHT22;22898;52.102;5.776;2023-01-25T16:14:11;6.70;96.40
36990;DHT22;22898;52.102;5.776;2023-01-25T16:16:39;5.70;98.20
36990;DHT22;22898;52.102;5.776;2023-01-25T16:19:05;5.10;99.60
36990;DHT22;22898;52.102;5.776;2023-01-25T16:21:31;5.00;99.90
36990;DHT22;22898;52.102;5.776;2023-01-25T16:23:56;4.80;99.90
36990;DHT22;22898;52.102;5.776;2023-01-25T16:26:24;4.50;99.90
36990;DHT22;22898;52.102;5.776;2023-01-25T16:28:50;4.80;99.90
36990;DHT22;22898;52.102;5.776;2023-01-25T16:31:16;4.50;99.90
36990;DHT22;22898;52.102;5.776;2023-01-25T16:33:42;4.10;99.90
36990;DHT22;22898;52.102;5.776;2023-01-25T16:36:18;3.80;99.90
36990;DHT22;22898;52.102;5.776;2023-01-25T16:38:44;3.80;99.90
36990;DHT22;22898;52.102;5.776;2023-01-25T16:41:10;3.90;99.90
36990;DHT22;22898;52.102;5.776;2023-01-25T16:43:41;3.90;99.90
36990;DHT22;22898;52.102;5.776;2023-01-25T16:48:43;4.50;99.90
36990;DHT22;22898;52.102;5.776;2023-01-25T16:51:20;4.60;99.90
36990;DHT22;22898;52.102;5.776;2023-01-25T16:53:46;4.60;99.90
36990;DHT22;22898;52.102;5.776;2023-01-25T16:56:21;4.90;99.90
36990;DHT22;22898;52.102;5.776;2023-01-25T16:58:47;4.70;99.90
36990;DHT22;22898;52.102;5.776;2023-01-25T17:01:15;4.60;99.90
36990;DHT22;22898;52.102;5.776;2023-01-25T17:03:41;4.50;99.90
36990;DHT22;22898;52.102;5.776;2023-01-25T17:06:07;4.80;99.90
36990;DHT22;22898;52.102;5.776;2023-01-25T17:08:39;5.10;99.90
36990;DHT22;22898;52.102;5.776;2023-01-25T17:11:05;5.30;99.90
36990;DHT22;22898;52.102;5.776;2023-01-25T17:13:31;5.50;99.60
36990;DHT22;22898;52.102;5.776;2023-01-25T17:15:57;5.30;99.90
36990;DHT22;22898;52.102;5.776;2023-01-25T17:18:23;5.60;99.40
36990;DHT22;22898;52.102;5.776;2023-01-25T17:20:59;5.30;99.40
36990;DHT22;22898;52.102;5.776;2023-01-25T17:23:25;4.90;99.90
36990;DHT22;22898;52.102;5.776;2023-01-25T17:25:52;4.80;99.90
36990;DHT22;22898;52.102;5.776;2023-01-25T17:28:18;4.60;99.90
36990;DHT22;22898;52.102;5.776;2023-01-25T17:30:44;4.60;99.90
36990;DHT22;22898;52.102;5.776;2023-01-25T17:33:09;4.80;99.90
36990;DHT22;22898;52.102;5.776;2023-01-25T17:35:37;5.10;99.90
36990;DHT22;22898;52.102;5.776;2023-01-25T17:38:02;5.60;99.20
36990;DHT22;22898;52.102;5.776;2023-01-25T17:40:28;5.80;98.80
36990;DHT22;22898;52.102;5.776;2023-01-25T17:42:54;5.80;98.90
36990;DHT22;22898;52.102;5.776;2023-01-25T17:45:19;6.10;98.00
36990;DHT22;22898;52.102;5.776;2023-01-25T17:47:45;6.30;98.20
36990;DHT22;22898;52.102;5.776;2023-01-25T17:50:10;6.30;98.00